Craig Municipal Airport
KCRG : rendu visible

Aérodrome :











RETROUVEZ-NOUS SUR...

 
LOGIN :

S'inscrire | Disclaimer

   EN    FR    IT 

 









Légende :    VFR   VFR Marginal   IFR   IFR Intensif   IFR Très Intensif
Visi : 
Plafond : 
>= 8 km
>= 3000ft
5 à 8 km
1000 à 3000 ft
1500m à 5 km
500 à 1000 ft
800 à 1500m
200 à 500 ft
< 800m
< 200 ft
Symboles :   Orages  Brouillard  Fortes neiges  Fortes précipitations  Vent > 20 kt






- Altitude de l'aérodrome : 41 ft


KCRG - Craig Municipal

DERNIER METAR :
  • 071153Z 00000KT 10SM CLR 18/17 A3012 RMK AO2 SLP197 T01780167 10183 20156 53012

METARs EXPIRÉS :
  • 071053Z 00000KT 10SM CLR 17/16 A3010 RMK AO2 SLP194 T01670156
  • 070953Z 00000KT 10SM CLR 17/16 A3009 RMK AO2 SLP189 T01720161

TAF KCRG
Valide du 07 à 12h jusqu'au 08 à 12h UTC


071120Z 0712/0812 24006KT P6SM BKN150 BKN250
FM071800 14009KT P6SM SCT050 BKN150 BKN250
FM080300 23005KT P6SM BKN050 BKN100 OVC200



MET'MAP, la Météo Aéronautique d'un coup d'oeil ! - Copyright ORBIFLY Décembre 2007 - Disclaimer

ORBIFLY MET'MAP TEAM :

Programmation & Développement : Alexandra Zaïnal
Sur une idée originale de : Baudouin d'Aumeries
Assistance à la programmation : Marc-Olivier Méhu
Soutien technique & logistique : Manuel Goepfert

Contact : metmap@orbifly.com




SOURCES & CREDITS :

   NOAA       Earth
Advisory